Time;durP1;ratioP1;P1;durP2;ratioP2;P2;SDS_P1;SDS_P2;PMS_P1;PMS_P2;Temp;Humidity;BMP_temperature;BMP_pressure;BME280_temperature;BME280_humidity;BME280_pressure;Samples;Min_cycle;Max_cycle;Signal;HPM_P1;HPM_P2
2023/09/19 00:02:17;;;;;;;8.55;3.30;;;13.80;99.90;;;;;;5135416;27;20038;-62
2023/09/19 00:04:43;;;;;;;7.15;2.10;;;13.80;99.90;;;;;;5114037;27;20077;-63
2023/09/19 00:07:09;;;;;;;12.15;2.20;;;13.80;99.90;;;;;;5118022;27;20050;-62
2023/09/19 00:09:37;;;;;;;6.82;1.48;;;13.80;99.90;;;;;;5153034;27;20038;-62
2023/09/19 00:12:05;;;;;;;5.00;1.70;;;13.80;99.90;;;;;;5113744;27;20042;-62
2023/09/19 00:14:34;;;;;;;6.60;1.45;;;13.80;99.90;;;;;;5113544;27;20043;-62
2023/09/19 00:17:00;;;;;;;5.68;1.65;;;13.80;99.90;;;;;;5131953;27;20160;-63
2023/09/19 00:19:26;;;;;;;7.05;1.30;;;13.70;99.90;;;;;;5133357;27;20046;-62
2023/09/19 00:21:53;;;;;;;5.15;1.27;;;13.70;99.90;;;;;;5116410;27;20075;-62
2023/09/19 00:24:18;;;;;;;5.18;1.52;;;13.70;99.90;;;;;;5133884;27;20039;-62
2023/09/19 00:26:47;;;;;;;8.32;1.52;;;13.60;99.90;;;;;;5134086;27;20447;-62
2023/09/19 00:29:16;;;;;;;5.82;1.40;;;13.70;99.90;;;;;;5144198;27;20110;-62
2023/09/19 00:31:44;;;;;;;8.13;1.30;;;13.60;99.90;;;;;;5133483;27;20130;-62
2023/09/19 00:34:10;;;;;;;7.22;1.50;;;13.60;99.90;;;;;;5114377;27;20024;-62
2023/09/19 00:36:39;;;;;;;7.55;1.65;;;13.60;99.90;;;;;;5115028;27;20067;-62
2023/09/19 00:39:05;;;;;;;4.55;1.52;;;13.60;99.90;;;;;;5118444;27;20118;-62
2023/09/19 00:41:35;;;;;;;8.77;1.88;;;13.60;99.90;;;;;;5121752;27;20035;-62
2023/09/19 00:44:03;;;;;;;5.97;1.67;;;13.60;99.90;;;;;;5131753;27;20535;-62
2023/09/19 00:46:32;;;;;;;5.55;1.52;;;13.60;99.90;;;;;;5113516;27;20051;-62
2023/09/19 00:48:59;;;;;;;8.38;1.73;;;13.60;99.90;;;;;;5113433;27;20114;-62
2023/09/19 00:51:25;;;;;;;9.38;1.73;;;13.60;99.90;;;;;;5146983;27;20034;-62
2023/09/19 00:53:52;;;;;;;11.48;1.77;;;13.60;99.90;;;;;;5131670;27;20051;-62
2023/09/19 00:56:19;;;;;;;6.55;1.92;;;13.60;99.90;;;;;;5144141;27;20066;-62
2023/09/19 00:58:48;;;;;;;7.70;1.33;;;13.60;99.90;;;;;;5145527;27;20066;-62
2023/09/19 01:01:14;;;;;;;7.25;2.05;;;13.60;99.90;;;;;;5135479;27;20035;-62
2023/09/19 01:03:41;;;;;;;6.82;1.85;;;13.60;99.90;;;;;;5114328;27;20049;-62
2023/09/19 01:06:08;;;;;;;7.38;1.50;;;13.50;99.90;;;;;;5132934;27;20124;-62
2023/09/19 01:08:35;;;;;;;4.53;2.05;;;13.60;99.90;;;;;;5135980;27;20065;-62
2023/09/19 01:11:08;;;;;;;9.85;1.67;;;13.50;99.90;;;;;;5150790;27;20055;-62
2023/09/19 01:14:02;;;;;;;7.25;1.60;;;13.50;99.90;;;;;;5124217;27;20450;-62
2023/09/19 01:17:03;;;;;;;8.13;1.58;;;13.50;99.90;;;;;;5127507;27;20050;-62
2023/09/19 01:20:05;;;;;;;9.70;2.50;;;13.40;99.90;;;;;;5042684;28;20057;-62
2023/09/19 01:22:39;;;;;;;10.10;1.73;;;13.40;99.90;;;;;;5002616;28;20046;-62
2023/09/19 01:25:39;;;;;;;4.88;1.60;;;13.40;99.90;;;;;;4999218;28;20053;-62
2023/09/19 01:28:10;;;;;;;13.00;2.00;;;13.40;99.90;;;;;;4991400;28;20057;-62
2023/09/19 01:30:43;;;;;;;7.15;1.52;;;13.40;99.90;;;;;;4967657;28;20111;-62
2023/09/19 01:33:10;;;;;;;;;;;13.30;99.90;;;;;;5003359;28;20083;-62
2023/09/19 01:35:38;;;;;;;14.05;1.77;;;13.30;99.90;;;;;;4986816;28;19927;-62
2023/09/19 01:38:09;;;;;;;8.38;1.90;;;13.30;99.90;;;;;;5001878;28;20050;-62
2023/09/19 01:40:45;;;;;;;9.75;1.98;;;13.30;99.90;;;;;;4985447;28;20383;-62
2023/09/19 01:43:31;;;;;;;6.38;1.90;;;13.30;99.90;;;;;;4985102;28;20054;-62
2023/09/19 01:46:16;;;;;;;9.07;2.22;;;13.30;99.90;;;;;;4969626;28;20045;-62
2023/09/19 01:49:27;;;;;;;7.60;1.98;;;13.30;99.90;;;;;;4986620;28;20583;-62
2023/09/19 01:52:19;;;;;;;9.25;2.08;;;13.30;99.90;;;;;;4981881;28;20050;-62
2023/09/19 01:54:53;;;;;;;11.15;1.90;;;13.30;99.90;;;;;;4989507;28;20576;-62
2023/09/19 01:57:30;;;;;;;7.75;2.22;;;13.30;99.90;;;;;;5109539;27;20061;-62
2023/09/19 02:00:11;;;;;;;8.35;1.75;;;13.20;99.90;;;;;;5122146;27;20043;-62
2023/09/19 02:02:52;;;;;;;9.18;1.90;;;13.20;99.90;;;;;;5143821;27;20081;-62
2023/09/19 02:05:24;;;;;;;9.13;1.50;;;13.20;99.90;;;;;;5142870;27;20034;-62
2023/09/19 02:07:51;;;;;;;8.18;1.73;;;13.20;99.90;;;;;;5126229;27;20046;-62
2023/09/19 02:10:17;;;;;;;9.38;2.13;;;13.20;99.90;;;;;;5127790;27;20050;-62
2023/09/19 02:12:43;;;;;;;6.30;1.67;;;13.20;99.90;;;;;;5143336;27;20489;-62
2023/09/19 02:15:09;;;;;;;6.75;1.83;;;13.20;99.90;;;;;;5121823;27;20118;-62
2023/09/19 02:17:34;;;;;;;6.40;1.50;;;13.20;99.90;;;;;;5143748;27;20045;-62
2023/09/19 02:20:00;;;;;;;5.32;1.67;;;13.20;99.90;;;;;;5143366;27;20038;-62
2023/09/19 02:22:27;;;;;;;10.40;3.20;;;13.20;99.90;;;;;;5108174;27;20047;-62
2023/09/19 02:24:53;;;;;;;10.82;1.90;;;13.20;99.90;;;;;;5130093;27;20118;-62
2023/09/19 02:27:19;;;;;;;7.97;1.90;;;13.20;99.90;;;;;;5128859;27;20122;-62
2023/09/19 02:29:45;;;;;;;4.97;1.50;;;13.10;99.90;;;;;;5146337;27;20038;-62
2023/09/19 02:32:10;;;;;;;8.20;1.60;;;13.10;99.90;;;;;;5144336;27;20035;-62
2023/09/19 02:34:39;;;;;;;7.78;1.55;;;13.20;99.90;;;;;;5146631;27;20035;-62
2023/09/19 02:37:05;;;;;;;7.03;1.63;;;13.10;99.90;;;;;;5128916;27;20099;-62
2023/09/19 02:39:31;;;;;;;7.43;1.75;;;13.10;99.90;;;;;;5127568;27;20043;-62
2023/09/19 02:41:57;;;;;;;6.28;1.52;;;13.10;99.90;;;;;;5134943;27;20114;-62
2023/09/19 02:44:23;;;;;;;6.25;1.42;;;13.10;99.90;;;;;;5134358;27;20134;-62
2023/09/19 02:46:49;;;;;;;6.28;1.42;;;13.10;99.90;;;;;;5133948;27;20339;-62
2023/09/19 02:49:15;;;;;;;6.18;1.92;;;13.10;99.90;;;;;;5136369;27;20030;-62
2023/09/19 02:51:41;;;;;;;6.82;1.60;;;13.10;99.90;;;;;;5122816;27;20043;-62
2023/09/19 02:54:07;;;;;;;8.13;1.40;;;13.10;99.90;;;;;;5133546;27;20122;-62
2023/09/19 02:56:33;;;;;;;6.78;2.00;;;13.10;99.90;;;;;;5133194;27;20103;-62
2023/09/19 02:59:00;;;;;;;6.90;1.70;;;13.10;99.90;;;;;;5134238;27;20042;-62
2023/09/19 03:01:27;;;;;;;6.90;1.60;;;13.10;99.90;;;;;;5115269;27;20054;-62
2023/09/19 03:03:53;;;;;;;7.35;1.90;;;13.10;99.90;;;;;;5115441;27;20043;-62
2023/09/19 03:06:20;;;;;;;4.57;1.55;;;13.10;99.90;;;;;;5135681;27;20038;-62
2023/09/19 03:08:46;;;;;;;8.38;1.73;;;13.00;99.90;;;;;;5131094;27;20035;-62
2023/09/19 03:11:14;;;;;;;8.10;1.40;;;13.00;99.90;;;;;;5115216;27;20039;-63
2023/09/19 03:13:42;;;;;;;5.30;1.77;;;13.00;99.90;;;;;;5133107;27;20047;-62
2023/09/19 03:16:08;;;;;;;7.65;1.80;;;13.00;99.90;;;;;;5135558;27;20046;-62
2023/09/19 03:18:37;;;;;;;8.88;1.65;;;13.10;99.90;;;;;;5140597;27;20116;-62
2023/09/19 03:21:03;;;;;;;7.03;1.42;;;13.10;99.90;;;;;;5152795;27;20027;-62
2023/09/19 03:23:29;;;;;;;7.43;1.55;;;13.10;99.90;;;;;;5154332;27;20477;-62
2023/09/19 03:25:56;;;;;;;8.35;1.75;;;13.10;99.90;;;;;;5138741;27;20039;-62
2023/09/19 03:28:22;;;;;;;5.97;1.58;;;13.20;99.90;;;;;;5133608;27;20400;-62
2023/09/19 03:30:59;;;;;;;10.40;1.83;;;13.20;99.90;;;;;;5136461;27;20446;-62
2023/09/19 03:33:25;;;;;;;6.80;1.42;;;13.20;99.90;;;;;;5115942;27;20035;-61
2023/09/19 03:35:54;;;;;;;7.15;1.52;;;13.20;99.90;;;;;;5114905;27;20054;-62
2023/09/19 03:38:21;;;;;;;3.97;1.45;;;13.30;99.90;;;;;;5118849;27;20501;-62
2023/09/19 03:40:47;;;;;;;5.53;1.40;;;13.20;99.90;;;;;;5134737;27;20049;-62
2023/09/19 03:43:14;;;;;;;10.13;1.83;;;13.20;99.90;;;;;;5126704;27;20053;-62
2023/09/19 03:45:40;;;;;;;5.75;1.42;;;13.20;99.90;;;;;;5134381;27;20038;-62
2023/09/19 03:48:12;;;;;;;5.45;1.40;;;13.30;99.90;;;;;;5125887;27;20091;-62
2023/09/19 03:50:38;;;;;;;5.78;1.38;;;13.20;99.90;;;;;;5135738;27;20486;-62
2023/09/19 03:53:04;;;;;;;5.38;1.70;;;13.20;99.90;;;;;;5119291;27;20125;-62
2023/09/19 03:55:30;;;;;;;4.15;1.75;;;13.30;99.90;;;;;;5123057;27;20130;-62
2023/09/19 03:57:56;;;;;;;4.55;1.40;;;13.20;99.90;;;;;;5114332;27;20487;-62
2023/09/19 04:00:26;;;;;;;4.82;2.20;;;13.30;99.90;;;;;;5125715;27;20051;-62
2023/09/19 04:02:52;;;;;;;5.13;1.17;;;13.30;99.90;;;;;;5117605;27;20122;-62
2023/09/19 04:05:18;;;;;;;5.78;1.83;;;13.30;99.90;;;;;;5131239;27;20043;-62
2023/09/19 04:07:44;;;;;;;6.10;1.50;;;13.40;99.90;;;;;;5113402;27;20046;-62
2023/09/19 04:10:14;;;;;;;5.88;1.42;;;13.40;99.90;;;;;;5115431;27;20481;-62
2023/09/19 04:12:40;;;;;;;7.80;1.63;;;13.40;99.90;;;;;;5120027;27;20046;-62
2023/09/19 04:15:07;;;;;;;6.63;1.75;;;13.40;99.90;;;;;;5125287;27;20047;-62
2023/09/19 04:17:33;;;;;;;7.03;1.75;;;13.40;99.90;;;;;;5134503;27;20035;-62
2023/09/19 04:19:59;;;;;;;6.63;2.30;;;13.40;99.90;;;;;;5153176;27;20050;-62
2023/09/19 04:22:25;;;;;;;6.15;1.75;;;13.40;99.90;;;;;;5152860;27;20034;-62
2023/09/19 04:24:51;;;;;;;6.07;2.05;;;13.50;99.90;;;;;;5128566;27;20095;-62
2023/09/19 04:27:16;;;;;;;11.65;2.05;;;13.50;99.90;;;;;;5133671;27;20070;-62
2023/09/19 04:29:42;;;;;;;8.85;2.55;;;13.50;99.90;;;;;;5113756;27;20398;-62
2023/09/19 04:32:09;;;;;;;8.45;2.13;;;13.50;99.90;;;;;;5114194;27;20042;-62
2023/09/19 04:34:35;;;;;;;7.05;1.70;;;13.50;99.90;;;;;;5121364;27;20050;-62
2023/09/19 04:37:02;;;;;;;10.45;2.20;;;13.50;99.90;;;;;;5133564;27;20070;-62
2023/09/19 04:39:28;;;;;;;9.70;1.90;;;13.50;99.90;;;;;;5133753;27;20069;-62
2023/09/19 04:41:54;;;;;;;9.68;2.00;;;13.50;99.90;;;;;;5152598;27;20038;-62
2023/09/19 04:44:20;;;;;;;8.50;1.92;;;13.50;99.90;;;;;;5114888;27;20110;-62
2023/09/19 04:46:47;;;;;;;8.90;1.75;;;13.50;99.90;;;;;;5115847;27;20035;-62
2023/09/19 04:49:13;;;;;;;11.95;1.65;;;13.50;99.90;;;;;;5147690;27;20031;-62
2023/09/19 04:51:39;;;;;;;7.03;2.03;;;13.50;99.90;;;;;;5113149;27;20035;-62
2023/09/19 04:54:06;;;;;;;11.38;1.98;;;13.50;99.90;;;;;;5141695;27;20046;-62
2023/09/19 04:56:32;;;;;;;6.40;1.90;;;13.50;99.90;;;;;;5139671;27;20127;-62
2023/09/19 04:58:58;;;;;;;9.35;1.85;;;13.50;99.90;;;;;;5122038;27;20121;-62
2023/09/19 05:01:24;;;;;;;14.48;2.58;;;13.60;99.90;;;;;;5125231;27;20054;-62
2023/09/19 05:03:52;;;;;;;11.68;3.13;;;13.60;99.90;;;;;;5136460;27;20050;-62
2023/09/19 05:06:21;;;;;;;11.48;2.00;;;13.60;99.90;;;;;;5115493;27;20106;-62
2023/09/19 05:08:53;;;;;;;7.55;1.90;;;13.50;99.90;;;;;;5125143;27;20052;-62
2023/09/19 05:11:21;;;;;;;12.02;2.17;;;13.60;99.90;;;;;;5096002;27;20043;-62
2023/09/19 05:13:47;;;;;;;11.52;2.35;;;13.50;99.90;;;;;;5113101;27;20042;-62
2023/09/19 05:16:13;;;;;;;9.43;1.80;;;13.50;99.90;;;;;;5112815;27;20043;-62
2023/09/19 05:18:39;;;;;;;13.75;1.90;;;13.50;99.90;;;;;;5133685;27;20443;-62
2023/09/19 05:21:05;;;;;;;8.90;2.45;;;13.50;99.90;;;;;;5114446;27;20439;-62
2023/09/19 05:23:31;;;;;;;7.93;1.80;;;13.50;99.90;;;;;;5119547;27;20043;-62
2023/09/19 05:25:59;;;;;;;9.20;1.85;;;13.50;99.90;;;;;;5127895;27;20513;-62
2023/09/19 05:28:26;;;;;;;8.75;2.05;;;13.50;99.90;;;;;;5127133;27;20050;-62
2023/09/19 05:30:53;;;;;;;7.45;1.60;;;13.50;99.90;;;;;;5145460;27;20043;-62
2023/09/19 05:33:19;;;;;;;8.30;2.40;;;13.40;99.90;;;;;;5144743;27;20503;-62
2023/09/19 05:35:46;;;;;;;10.23;1.80;;;13.40;99.90;;;;;;5132317;27;20035;-61
2023/09/19 05:38:19;;;;;;;8.60;1.63;;;13.40;99.90;;;;;;5123024;27;20043;-63
2023/09/19 05:40:45;;;;;;;;;;;13.40;99.90;;;;;;5099724;27;20478;-61
2023/09/19 05:43:10;;;;;;;10.77;2.63;;;13.30;99.90;;;;;;5140370;27;19919;-61
2023/09/19 05:45:37;;;;;;;9.63;1.90;;;13.30;99.90;;;;;;5138400;27;20042;-62
2023/09/19 05:48:13;;;;;;;6.68;2.05;;;13.30;99.90;;;;;;5135567;27;20043;-62
2023/09/19 05:50:39;;;;;;;9.18;1.75;;;13.20;99.90;;;;;;5114930;27;20075;-62
2023/09/19 05:53:06;;;;;;;6.45;1.80;;;13.20;99.90;;;;;;5119379;27;20050;-62
2023/09/19 05:55:32;;;;;;;16.77;3.35;;;13.20;99.90;;;;;;5117711;27;20051;-61
2023/09/19 05:57:58;;;;;;;7.25;1.80;;;13.20;99.90;;;;;;5118276;27;20043;-62
2023/09/19 06:00:27;;;;;;;9.23;2.20;;;13.20;99.90;;;;;;5115685;27;20054;-61
2023/09/19 06:02:57;;;;;;;6.55;1.83;;;13.30;99.90;;;;;;5118263;27;20078;-61
2023/09/19 06:05:26;;;;;;;8.07;2.13;;;13.30;99.90;;;;;;5137763;27;20031;-61
2023/09/19 06:07:52;;;;;;;12.30;2.53;;;13.30;99.90;;;;;;5099302;27;20079;-61
2023/09/19 06:10:20;;;;;;;8.85;2.10;;;13.40;99.90;;;;;;5116634;27;20074;-61
2023/09/19 06:12:46;;;;;;;8.68;2.20;;;13.50;99.90;;;;;;5116095;27;20114;-61
2023/09/19 06:15:18;;;;;;;10.93;2.53;;;13.50;99.90;;;;;;5122959;27;20122;-62
2023/09/19 06:17:51;;;;;;;11.05;2.10;;;13.50;99.90;;;;;;5155269;27;20038;-61
2023/09/19 06:20:17;;;;;;;10.27;2.35;;;13.60;99.90;;;;;;5135313;27;20171;-61
2023/09/19 06:22:44;;;;;;;8.48;1.90;;;13.60;99.90;;;;;;5120527;27;20394;-62
2023/09/19 06:25:11;;;;;;;9.88;2.42;;;13.50;99.90;;;;;;5134700;27;20957;-61
2023/09/19 06:27:41;;;;;;;12.27;1.90;;;13.50;99.90;;;;;;5115384;27;20126;-61
2023/09/19 06:30:07;;;;;;;8.55;2.20;;;13.50;99.90;;;;;;5115950;27;20085;-61
2023/09/19 06:32:33;;;;;;;8.75;2.38;;;13.50;99.90;;;;;;5119733;27;20050;-61
2023/09/19 06:34:59;;;;;;;14.43;2.35;;;13.40;99.90;;;;;;5118021;27;21520;-61
2023/09/19 06:37:28;;;;;;;9.68;2.17;;;13.40;99.90;;;;;;5119332;27;20039;-61
2023/09/19 06:39:53;;;;;;;15.50;2.90;;;13.50;99.90;;;;;;5143472;27;20504;-61
2023/09/19 06:42:19;;;;;;;9.95;2.28;;;13.60;99.90;;;;;;5136419;27;20034;-62
2023/09/19 06:44:45;;;;;;;8.15;1.75;;;13.70;99.90;;;;;;5135140;27;20043;-62
2023/09/19 06:47:10;;;;;;;7.35;2.00;;;13.70;99.90;;;;;;5119970;27;20074;-61
2023/09/19 06:49:36;;;;;;;9.13;2.10;;;13.70;99.90;;;;;;5106567;27;20187;-63
2023/09/19 06:52:03;;;;;;;10.77;1.92;;;13.80;99.90;;;;;;5151660;27;20035;-62
2023/09/19 06:54:35;;;;;;;12.80;2.13;;;13.80;99.90;;;;;;5134111;27;20063;-62
2023/09/19 06:57:00;;;;;;;10.05;2.42;;;13.80;99.90;;;;;;5135830;27;20536;-62
2023/09/19 06:59:26;;;;;;;8.25;1.90;;;13.90;99.90;;;;;;5151117;27;20066;-62
2023/09/19 07:01:52;;;;;;;9.45;1.88;;;13.90;99.90;;;;;;5115534;27;20114;-62
2023/09/19 07:04:24;;;;;;;10.32;2.15;;;14.10;99.90;;;;;;5115911;27;20042;-63
2023/09/19 07:06:50;;;;;;;9.48;2.13;;;14.20;99.90;;;;;;5131150;27;20066;-62
2023/09/19 07:09:16;;;;;;;10.18;2.10;;;14.20;99.90;;;;;;5154961;27;20031;-63
2023/09/19 07:11:43;;;;;;;5.65;2.05;;;14.20;99.90;;;;;;5155032;27;20031;-61
2023/09/19 07:14:11;;;;;;;8.77;2.42;;;14.20;99.90;;;;;;5126486;27;20035;-61
2023/09/19 07:16:42;;;;;;;9.15;2.08;;;14.20;99.90;;;;;;5115567;27;20035;-61
2023/09/19 07:19:08;;;;;;;8.35;1.98;;;14.10;99.90;;;;;;5115203;27;20437;-62
2023/09/19 07:21:35;;;;;;;9.00;1.70;;;14.10;99.90;;;;;;5133403;27;20130;-61
2023/09/19 07:24:04;;;;;;;9.23;1.85;;;14.10;99.90;;;;;;5132951;27;20045;-62
2023/09/19 07:26:30;;;;;;;8.73;1.75;;;14.10;99.90;;;;;;5133104;27;20047;-62
2023/09/19 07:29:15;;;;;;;8.85;2.20;;;14.10;99.90;;;;;;5127051;27;20042;-61
2023/09/19 07:31:40;;;;;;;9.13;1.90;;;14.10;99.90;;;;;;5118456;27;20491;-61
2023/09/19 07:34:08;;;;;;;12.80;3.13;;;14.10;99.90;;;;;;5114631;27;20035;-60
2023/09/19 07:36:37;;;;;;;8.52;2.15;;;14.10;99.90;;;;;;5114668;27;20057;-60
2023/09/19 07:39:06;;;;;;;11.10;1.95;;;14.10;99.90;;;;;;5114457;27;20042;-60
2023/09/19 07:41:32;;;;;;;8.85;2.08;;;14.20;99.90;;;;;;5132893;27;20440;-60
2023/09/19 07:43:58;;;;;;;8.93;1.73;;;14.30;99.90;;;;;;5114305;27;20034;-60
2023/09/19 07:46:25;;;;;;;9.85;2.33;;;14.40;99.90;;;;;;5114571;27;20496;-60
2023/09/19 07:48:51;;;;;;;7.85;2.28;;;14.50;99.90;;;;;;5133002;27;20446;-60
2023/09/19 07:51:17;;;;;;;11.93;2.30;;;14.60;99.90;;;;;;5132922;27;20103;-60
2023/09/19 07:53:43;;;;;;;9.18;2.05;;;14.60;99.90;;;;;;5113471;27;20489;-61
2023/09/19 07:56:10;;;;;;;12.95;3.08;;;14.70;99.90;;;;;;5096823;27;20035;-60
2023/09/19 07:58:39;;;;;;;8.70;2.08;;;14.70;99.90;;;;;;5114061;27;20035;-60
2023/09/19 08:01:06;;;;;;;9.27;2.20;;;14.80;99.90;;;;;;5132591;27;20481;-60
2023/09/19 08:03:34;;;;;;;11.70;2.20;;;14.70;99.90;;;;;;5132687;27;20035;-60
2023/09/19 08:06:00;;;;;;;8.35;1.80;;;14.70;99.90;;;;;;5114139;27;20064;-60
2023/09/19 08:08:26;;;;;;;10.20;2.35;;;14.70;99.90;;;;;;5132619;27;20058;-61
2023/09/19 08:10:55;;;;;;;8.77;2.65;;;14.70;99.90;;;;;;5114312;27;20115;-61
2023/09/19 08:13:21;;;;;;;10.90;2.20;;;14.80;99.90;;;;;;5133827;27;20058;-61
2023/09/19 08:15:47;;;;;;;11.00;2.50;;;14.80;99.90;;;;;;5152479;27;20043;-61
2023/09/19 08:18:14;;;;;;;9.55;2.10;;;14.80;99.90;;;;;;5152978;27;20035;-61
2023/09/19 08:20:42;;;;;;;7.63;2.00;;;14.90;99.90;;;;;;5132726;27;20047;-61
2023/09/19 08:23:08;;;;;;;11.05;2.15;;;15.00;99.90;;;;;;5132227;27;20083;-61
2023/09/19 08:25:34;;;;;;;8.45;2.80;;;15.20;99.90;;;;;;5113936;27;20039;-61
2023/09/19 08:28:03;;;;;;;10.18;2.25;;;15.40;99.90;;;;;;5113861;27;20038;-61
2023/09/19 08:30:30;;;;;;;13.75;2.42;;;15.50;99.90;;;;;;5132348;27;20501;-61
2023/09/19 08:33:00;;;;;;;8.60;2.10;;;15.60;99.90;;;;;;5148743;27;20662;-61
2023/09/19 08:35:28;;;;;;;10.70;2.40;;;15.70;99.90;;;;;;5152977;27;20115;-61
2023/09/19 08:37:55;;;;;;;8.13;2.05;;;15.90;99.90;;;;;;5152747;27;20079;-61
2023/09/19 08:40:21;;;;;;;8.85;2.25;;;16.00;99.90;;;;;;5152451;27;20070;-61
2023/09/19 08:42:51;;;;;;;11.00;2.53;;;16.10;99.90;;;;;;5134256;27;20134;-61
2023/09/19 08:45:17;;;;;;;8.95;2.17;;;16.20;99.90;;;;;;5119465;27;20050;-61
2023/09/19 08:47:52;;;;;;;13.68;2.30;;;16.20;99.90;;;;;;5113749;27;20046;-61
2023/09/19 08:50:30;;;;;;;8.05;2.15;;;16.20;99.90;;;;;;5131780;27;20065;-61
2023/09/19 08:53:01;;;;;;;13.30;2.67;;;16.40;99.90;;;;;;5131833;27;20110;-61
2023/09/19 08:55:28;;;;;;;12.90;2.33;;;16.50;99.90;;;;;;5113285;27;20062;-61
2023/09/19 08:58:06;;;;;;;10.60;2.08;;;16.50;99.90;;;;;;5131665;27;20045;-61
2023/09/19 09:00:34;;;;;;;11.25;2.47;;;16.60;99.90;;;;;;5113663;27;20654;-61
2023/09/19 09:03:02;;;;;;;7.40;2.15;;;16.60;99.90;;;;;;5113012;27;20035;-61
2023/09/19 09:05:28;;;;;;;8.30;2.20;;;16.70;99.90;;;;;;5131221;27;20063;-61
2023/09/19 09:07:56;;;;;;;11.63;2.00;;;16.90;99.90;;;;;;5096974;27;20554;-61
2023/09/19 09:10:22;;;;;;;10.35;2.80;;;17.10;99.90;;;;;;5112535;27;20112;-61
2023/09/19 09:12:55;;;;;;;9.90;2.90;;;17.20;99.90;;;;;;5131809;27;20026;-61
2023/09/19 09:15:23;;;;;;;11.95;2.45;;;17.30;99.90;;;;;;5115103;27;20111;-61
2023/09/19 09:17:55;;;;;;;10.27;2.40;;;17.40;99.90;;;;;;5133823;27;20038;-60
2023/09/19 09:20:21;;;;;;;;;;;17.40;99.90;;;;;;5133835;27;20050;-61
2023/09/19 09:23:03;;;;;;;10.95;2.25;;;17.50;99.90;;;;;;5115878;27;19915;-61
2023/09/19 09:25:54;;;;;;;9.48;2.30;;;17.50;99.90;;;;;;5114033;27;20505;-61
2023/09/19 09:28:26;;;;;;;10.77;2.30;;;17.60;99.90;;;;;;5112479;27;20038;-61
2023/09/19 09:30:52;;;;;;;10.63;2.20;;;17.80;99.90;;;;;;5149085;27;20043;-61
2023/09/19 09:33:18;;;;;;;10.45;2.75;;;17.60;99.90;;;;;;5132877;27;20370;-61
2023/09/19 09:35:56;;;;;;;7.03;1.80;;;17.60;99.90;;;;;;5152056;27;20099;-61
2023/09/19 09:38:27;;;;;;;12.13;2.28;;;17.60;99.90;;;;;;5132965;27;20043;-61
2023/09/19 09:41:00;;;;;;;11.13;2.55;;;17.70;99.90;;;;;;5132994;27;20049;-61
2023/09/19 09:43:41;;;;;;;13.80;2.70;;;17.80;99.90;;;;;;5132773;27;20047;-61
2023/09/19 09:46:58;;;;;;;11.77;2.28;;;17.80;99.90;;;;;;5133053;27;20043;-61
2023/09/19 09:49:25;;;;;;;12.77;2.55;;;17.90;99.90;;;;;;5118047;27;20393;-62
2023/09/19 09:52:07;;;;;;;9.55;2.28;;;17.80;99.90;;;;;;5115223;27;20079;-61
2023/09/19 09:54:36;;;;;;;9.23;2.20;;;17.80;99.90;;;;;;5131362;27;20051;-62
2023/09/19 09:57:25;;;;;;;8.80;2.70;;;17.80;99.90;;;;;;5130940;27;20077;-62
2023/09/19 09:59:59;;;;;;;9.77;2.03;;;18.00;99.90;;;;;;5145218;27;20050;-62
2023/09/19 10:02:29;;;;;;;10.38;2.63;;;18.10;99.90;;;;;;5114665;28;20047;-62
2023/09/19 10:05:20;;;;;;;10.27;2.38;;;18.00;99.90;;;;;;5112804;27;20381;-62
2023/09/19 10:08:04;;;;;;;7.20;2.22;;;18.10;99.90;;;;;;5150443;27;20027;-62
2023/09/19 10:13:07;;;;;;;13.25;2.55;;;18.20;99.90;;;;;;5112713;27;20134;-62
2023/09/19 10:15:33;;;;;;;7.28;2.40;;;18.30;99.90;;;;;;5111849;27;20401;-62
2023/09/19 10:18:08;;;;;;;8.88;2.22;;;18.30;99.90;;;;;;5150636;27;20031;-63
2023/09/19 10:20:38;;;;;;;11.65;2.47;;;18.30;99.90;;;;;;5132957;27;20050;-62
2023/09/19 10:23:12;;;;;;;10.38;2.65;;;18.30;99.90;;;;;;5129184;27;20035;-62
2023/09/19 10:25:43;;;;;;;10.50;2.47;;;18.20;99.90;;;;;;5112024;27;20386;-62
2023/09/19 10:28:13;;;;;;;12.27;2.78;;;18.10;99.90;;;;;;5112346;27;20108;-62
2023/09/19 10:30:48;;;;;;;9.50;2.90;;;18.00;99.90;;;;;;5130768;27;20046;-63
2023/09/19 10:33:16;;;;;;;11.77;2.80;;;18.00;99.90;;;;;;5112678;27;20505;-62
2023/09/19 10:35:44;;;;;;;9.27;2.28;;;18.20;99.90;;;;;;5112121;27;20039;-63
2023/09/19 10:38:11;;;;;;;8.88;1.98;;;18.40;99.90;;;;;;5132486;27;20035;-63
2023/09/19 10:40:42;;;;;;;10.20;2.13;;;18.40;99.90;;;;;;5115749;27;20047;-63
2023/09/19 10:43:23;;;;;;;9.32;2.35;;;18.40;99.90;;;;;;5134279;27;20043;-62
2023/09/19 10:45:53;;;;;;;7.25;1.90;;;18.60;99.90;;;;;;5116087;27;20043;-61
2023/09/19 10:48:20;;;;;;;13.10;2.58;;;18.70;99.90;;;;;;5115916;27;20035;-62
2023/09/19 10:50:49;;;;;;;6.03;1.73;;;18.90;99.90;;;;;;5115928;27;20382;-62
2023/09/19 10:53:16;;;;;;;9.18;2.08;;;18.80;99.90;;;;;;5115819;27;20065;-62
2023/09/19 10:55:54;;;;;;;9.98;2.90;;;18.70;99.90;;;;;;5134116;27;20054;-63
2023/09/19 10:58:38;;;;;;;8.07;1.70;;;18.70;99.90;;;;;;5134091;27;20045;-62
2023/09/19 11:01:12;;;;;;;9.55;2.13;;;18.70;99.90;;;;;;5135887;27;20039;-62
2023/09/19 11:03:43;;;;;;;8.88;2.78;;;18.70;99.90;;;;;;5154809;27;20039;-63
2023/09/19 11:06:15;;;;;;;11.48;2.30;;;18.60;99.90;;;;;;5132526;27;20043;-62
2023/09/19 11:09:26;;;;;;;11.15;2.03;;;18.60;99.90;;;;;;5115650;27;20043;-62
2023/09/19 11:11:52;;;;;;;11.40;2.65;;;18.60;99.90;;;;;;5133020;27;20114;-62
2023/09/19 11:14:24;;;;;;;7.63;1.90;;;18.50;99.90;;;;;;5116204;27;20494;-62
2023/09/19 11:17:05;;;;;;;10.20;2.70;;;18.50;99.90;;;;;;5127010;27;20474;-62
2023/09/19 11:25:39;;;;;;;9.13;2.22;;;18.40;99.90;;;;;;5135079;27;20463;-62
2023/09/19 11:28:17;;;;;;;8.20;1.98;;;18.70;99.90;;;;;;5153939;27;20035;-62
2023/09/19 11:30:53;;;;;;;9.48;3.50;;;18.80;99.90;;;;;;5127931;27;20397;-62
2023/09/19 11:33:46;;;;;;;11.32;2.40;;;18.80;99.90;;;;;;5098051;27;20054;-62
2023/09/19 11:36:18;;;;;;;9.73;1.77;;;18.60;99.90;;;;;;5114829;27;20078;-62
2023/09/19 11:38:52;;;;;;;10.52;1.77;;;18.50;99.90;;;;;;5133406;27;20092;-62
2023/09/19 11:41:21;;;;;;;7.85;2.25;;;18.50;99.90;;;;;;5114950;27;20039;-62
2023/09/19 11:43:58;;;;;;;12.13;2.17;;;18.30;99.90;;;;;;5114965;27;20039;-62
2023/09/19 11:46:25;;;;;;;10.40;2.08;;;18.30;99.90;;;;;;5114785;27;20035;-63
2023/09/19 11:48:51;;;;;;;10.65;2.15;;;18.30;99.90;;;;;;5114166;28;20546;-62
2023/09/19 11:51:23;;;;;;;9.48;2.33;;;18.20;99.90;;;;;;5130546;27;20034;-62
2023/09/19 11:53:57;;;;;;;7.47;1.60;;;18.10;99.90;;;;;;5113872;27;20055;-61
2023/09/19 11:56:28;;;;;;;6.25;1.58;;;18.10;99.90;;;;;;5115463;27;20047;-62
2023/09/19 11:58:55;;;;;;;7.45;2.05;;;18.10;99.90;;;;;;5113991;27;20051;-62
2023/09/19 12:01:31;;;;;;;8.15;2.22;;;18.20;99.90;;;;;;5121947;27;20043;-62
2023/09/19 12:03:59;;;;;;;6.68;1.80;;;18.20;99.90;;;;;;5132497;27;20181;-62
2023/09/19 12:06:36;;;;;;;6.25;1.80;;;18.20;99.90;;;;;;5133156;27;20038;-62
2023/09/19 12:09:06;;;;;;;7.75;1.90;;;18.20;99.90;;;;;;5148407;27;20042;-62
2023/09/19 12:11:33;;;;;;;10.70;2.15;;;18.20;99.90;;;;;;5153132;27;20043;-62
2023/09/19 12:14:00;;;;;;;6.45;1.80;;;18.10;99.90;;;;;;5136152;27;20039;-62
2023/09/19 12:16:30;;;;;;;8.27;1.70;;;18.00;99.90;;;;;;5132235;27;20432;-62
2023/09/19 12:18:57;;;;;;;8.98;2.42;;;18.00;99.90;;;;;;5132234;27;20046;-62
2023/09/19 12:21:30;;;;;;;7.68;1.58;;;17.90;99.90;;;;;;5113636;27;20068;-62
2023/09/19 12:24:13;;;;;;;5.85;1.50;;;17.90;99.90;;;;;;5096864;27;20047;-62
2023/09/19 12:26:45;;;;;;;4.90;1.75;;;17.90;99.90;;;;;;5114234;27;20042;-62
2023/09/19 12:29:17;;;;;;;6.93;1.90;;;18.00;99.90;;;;;;5113685;27;20104;-63
2023/09/19 12:31:57;;;;;;;6.28;1.50;;;18.10;99.90;;;;;;5132194;27;20541;-63
2023/09/19 12:34:28;;;;;;;7.47;1.80;;;18.20;99.90;;;;;;5134375;27;20046;-62
2023/09/19 12:37:20;;;;;;;5.93;1.63;;;18.30;99.90;;;;;;5134458;27;20166;-62
2023/09/19 12:39:51;;;;;;;10.10;2.08;;;18.30;99.90;;;;;;5134491;27;20476;-62
2023/09/19 12:42:22;;;;;;;8.90;1.80;;;18.20;99.90;;;;;;5134144;27;20042;-62
2023/09/19 12:44:55;;;;;;;4.80;1.60;;;18.20;99.90;;;;;;5152844;27;20427;-62
2023/09/19 12:47:23;;;;;;;6.03;1.25;;;18.20;99.90;;;;;;5133977;27;20038;-62
2023/09/19 12:50:19;;;;;;;7.60;1.70;;;18.20;99.90;;;;;;5152701;27;20074;-62
2023/09/19 12:52:49;;;;;;;5.60;1.70;;;18.20;99.90;;;;;;5134028;27;20091;-63
2023/09/19 12:55:35;;;;;;;5.82;1.45;;;18.10;99.90;;;;;;5133397;27;20043;-62
2023/09/19 12:58:18;;;;;;;6.93;1.42;;;18.10;99.90;;;;;;5113407;27;20039;-62
2023/09/19 13:00:45;;;;;;;7.00;1.65;;;18.10;99.90;;;;;;5129770;27;20209;-62
2023/09/19 13:03:28;;;;;;;7.47;1.50;;;18.00;99.90;;;;;;5113414;27;20096;-63
2023/09/19 13:06:00;;;;;;;5.70;1.40;;;18.00;99.90;;;;;;5114599;27;20164;-62
2023/09/19 13:08:31;;;;;;;;;;;18.00;99.90;;;;;;5153076;27;20030;-62
2023/09/19 13:11:06;;;;;;;8.05;2.03;;;17.90;99.90;;;;;;5134007;27;19922;-62